sensor_id;sensor_type;location;lat;lon;timestamp;P1;durP1;ratioP1;P2;durP2;ratioP2
13689;SDS011;6917;52.194;9.894;2022-12-24T00:01:58;0.00;;;0.00;;
13689;SDS011;6917;52.194;9.894;2022-12-24T00:04:24;0.00;;;0.00;;
13689;SDS011;6917;52.194;9.894;2022-12-24T00:06:49;0.00;;;0.00;;
13689;SDS011;6917;52.194;9.894;2022-12-24T00:09:14;0.00;;;0.00;;
13689;SDS011;6917;52.194;9.894;2022-12-24T00:11:40;0.00;;;0.00;;
13689;SDS011;6917;52.194;9.894;2022-12-24T00:14:05;0.00;;;0.00;;
13689;SDS011;6917;52.194;9.894;2022-12-24T00:16:30;0.20;;;0.20;;
13689;SDS011;6917;52.194;9.894;2022-12-24T00:18:56;0.50;;;0.50;;
13689;SDS011;6917;52.194;9.894;2022-12-24T00:21:21;0.27;;;0.27;;
13689;SDS011;6917;52.194;9.894;2022-12-24T00:23:46;0.00;;;0.00;;
13689;SDS011;6917;52.194;9.894;2022-12-24T00:26:12;0.00;;;0.00;;
13689;SDS011;6917;52.194;9.894;2022-12-24T00:28:37;0.00;;;0.00;;
13689;SDS011;6917;52.194;9.894;2022-12-24T00:31:07;0.20;;;0.20;;
13689;SDS011;6917;52.194;9.894;2022-12-24T00:33:34;1.63;;;1.53;;
13689;SDS011;6917;52.194;9.894;2022-12-24T00:35:59;0.00;;;0.00;;
13689;SDS011;6917;52.194;9.894;2022-12-24T00:38:24;0.10;;;0.10;;
13689;SDS011;6917;52.194;9.894;2022-12-24T00:40:49;0.00;;;0.00;;
13689;SDS011;6917;52.194;9.894;2022-12-24T00:43:15;0.00;;;0.00;;
13689;SDS011;6917;52.194;9.894;2022-12-24T00:45:40;4.10;;;2.13;;
13689;SDS011;6917;52.194;9.894;2022-12-24T00:48:05;0.00;;;0.00;;
13689;SDS011;6917;52.194;9.894;2022-12-24T00:50:31;0.00;;;0.00;;
13689;SDS011;6917;52.194;9.894;2022-12-24T00:52:56;0.00;;;0.00;;
13689;SDS011;6917;52.194;9.894;2022-12-24T00:55:22;0.00;;;0.00;;
13689;SDS011;6917;52.194;9.894;2022-12-24T00:57:47;0.00;;;0.00;;
13689;SDS011;6917;52.194;9.894;2022-12-24T01:00:12;0.00;;;0.00;;
13689;SDS011;6917;52.194;9.894;2022-12-24T01:02:39;0.00;;;0.00;;
13689;SDS011;6917;52.194;9.894;2022-12-24T01:05:05;0.00;;;0.00;;
13689;SDS011;6917;52.194;9.894;2022-12-24T01:07:34;0.00;;;0.00;;
13689;SDS011;6917;52.194;9.894;2022-12-24T01:10:00;0.00;;;0.00;;
13689;SDS011;6917;52.194;9.894;2022-12-24T01:12:26;0.00;;;0.00;;
13689;SDS011;6917;52.194;9.894;2022-12-24T01:14:51;0.00;;;0.00;;
13689;SDS011;6917;52.194;9.894;2022-12-24T01:17:17;0.00;;;0.00;;
13689;SDS011;6917;52.194;9.894;2022-12-24T01:19:42;0.00;;;0.00;;
13689;SDS011;6917;52.194;9.894;2022-12-24T01:22:07;0.00;;;0.00;;
13689;SDS011;6917;52.194;9.894;2022-12-24T01:24:33;0.13;;;0.13;;
13689;SDS011;6917;52.194;9.894;2022-12-24T01:26:58;1.10;;;0.30;;
13689;SDS011;6917;52.194;9.894;2022-12-24T01:29:24;0.00;;;0.00;;
13689;SDS011;6917;52.194;9.894;2022-12-24T01:31:49;0.00;;;0.00;;
13689;SDS011;6917;52.194;9.894;2022-12-24T01:34:14;0.00;;;0.00;;
13689;SDS011;6917;52.194;9.894;2022-12-24T01:36:40;0.00;;;0.00;;
13689;SDS011;6917;52.194;9.894;2022-12-24T01:39:05;0.00;;;0.00;;
13689;SDS011;6917;52.194;9.894;2022-12-24T01:41:30;0.00;;;0.00;;
13689;SDS011;6917;52.194;9.894;2022-12-24T01:44:15;0.00;;;0.00;;
13689;SDS011;6917;52.194;9.894;2022-12-24T01:46:40;0.00;;;0.00;;
13689;SDS011;6917;52.194;9.894;2022-12-24T01:49:07;0.00;;;0.00;;
13689;SDS011;6917;52.194;9.894;2022-12-24T01:51:39;0.30;;;0.30;;
13689;SDS011;6917;52.194;9.894;2022-12-24T01:54:10;0.00;;;0.00;;
13689;SDS011;6917;52.194;9.894;2022-12-24T01:56:38;0.30;;;0.30;;
13689;SDS011;6917;52.194;9.894;2022-12-24T01:59:07;2.37;;;2.10;;
13689;SDS011;6917;52.194;9.894;2022-12-24T02:01:36;2.63;;;2.47;;
13689;SDS011;6917;52.194;9.894;2022-12-24T02:04:04;1.90;;;1.60;;
13689;SDS011;6917;52.194;9.894;2022-12-24T02:06:39;1.97;;;1.87;;
13689;SDS011;6917;52.194;9.894;2022-12-24T02:09:04;1.93;;;1.83;;
13689;SDS011;6917;52.194;9.894;2022-12-24T02:11:31;2.80;;;2.60;;
13689;SDS011;6917;52.194;9.894;2022-12-24T02:13:58;5.20;;;3.90;;
13689;SDS011;6917;52.194;9.894;2022-12-24T02:18:59;2.07;;;1.87;;
13689;SDS011;6917;52.194;9.894;2022-12-24T02:21:49;5.33;;;2.07;;
13689;SDS011;6917;52.194;9.894;2022-12-24T02:29:55;6.43;;;2.00;;
13689;SDS011;6917;52.194;9.894;2022-12-24T02:32:44;4.20;;;1.17;;
13689;SDS011;6917;52.194;9.894;2022-12-24T02:35:18;2.17;;;1.63;;
13689;SDS011;6917;52.194;9.894;2022-12-24T02:37:50;4.73;;;2.40;;
13689;SDS011;6917;52.194;9.894;2022-12-24T02:40:30;3.50;;;2.20;;
13689;SDS011;6917;52.194;9.894;2022-12-24T02:43:02;3.87;;;2.17;;
13689;SDS011;6917;52.194;9.894;2022-12-24T02:45:34;6.13;;;2.13;;
13689;SDS011;6917;52.194;9.894;2022-12-24T02:48:02;8.10;;;1.80;;
13689;SDS011;6917;52.194;9.894;2022-12-24T02:50:29;6.17;;;2.20;;
13689;SDS011;6917;52.194;9.894;2022-12-24T02:52:54;4.60;;;1.60;;
13689;SDS011;6917;52.194;9.894;2022-12-24T03:06:36;5.23;;;2.67;;
13689;SDS011;6917;52.194;9.894;2022-12-24T03:09:29;1.93;;;1.67;;
13689;SDS011;6917;52.194;9.894;2022-12-24T03:12:09;3.60;;;1.30;;
13689;SDS011;6917;52.194;9.894;2022-12-24T03:14:39;3.53;;;1.10;;
13689;SDS011;6917;52.194;9.894;2022-12-24T03:17:06;4.77;;;2.40;;
13689;SDS011;6917;52.194;9.894;2022-12-24T03:19:32;8.07;;;1.97;;
13689;SDS011;6917;52.194;9.894;2022-12-24T03:21:59;12.80;;;2.03;;
13689;SDS011;6917;52.194;9.894;2022-12-24T03:24:28;4.43;;;1.03;;
13689;SDS011;6917;52.194;9.894;2022-12-24T03:26:53;1.37;;;1.03;;
13689;SDS011;6917;52.194;9.894;2022-12-24T03:29:19;4.57;;;1.03;;
13689;SDS011;6917;52.194;9.894;2022-12-24T03:31:48;5.73;;;2.90;;
13689;SDS011;6917;52.194;9.894;2022-12-24T03:34:16;8.57;;;2.37;;
13689;SDS011;6917;52.194;9.894;2022-12-24T03:36:42;4.63;;;2.23;;
13689;SDS011;6917;52.194;9.894;2022-12-24T03:39:09;4.47;;;1.80;;
13689;SDS011;6917;52.194;9.894;2022-12-24T03:41:35;5.40;;;1.30;;
13689;SDS011;6917;52.194;9.894;2022-12-24T03:44:01;8.20;;;2.07;;
13689;SDS011;6917;52.194;9.894;2022-12-24T03:46:27;10.77;;;2.53;;
13689;SDS011;6917;52.194;9.894;2022-12-24T03:48:52;8.73;;;2.33;;
13689;SDS011;6917;52.194;9.894;2022-12-24T03:51:19;4.07;;;2.37;;
13689;SDS011;6917;52.194;9.894;2022-12-24T03:53:46;3.97;;;1.40;;
13689;SDS011;6917;52.194;9.894;2022-12-24T03:56:12;6.20;;;2.70;;
13689;SDS011;6917;52.194;9.894;2022-12-24T03:58:38;4.33;;;1.57;;
13689;SDS011;6917;52.194;9.894;2022-12-24T04:01:03;10.57;;;3.17;;
13689;SDS011;6917;52.194;9.894;2022-12-24T04:03:29;17.93;;;3.27;;
13689;SDS011;6917;52.194;9.894;2022-12-24T04:06:01;7.57;;;2.73;;
13689;SDS011;6917;52.194;9.894;2022-12-24T04:08:28;7.43;;;2.17;;
13689;SDS011;6917;52.194;9.894;2022-12-24T04:10:53;18.40;;;3.33;;
13689;SDS011;6917;52.194;9.894;2022-12-24T04:13:18;2.90;;;1.37;;
13689;SDS011;6917;52.194;9.894;2022-12-24T04:15:44;5.50;;;2.30;;
13689;SDS011;6917;52.194;9.894;2022-12-24T04:18:09;17.50;;;2.77;;
13689;SDS011;6917;52.194;9.894;2022-12-24T04:20:34;9.80;;;2.57;;
13689;SDS011;6917;52.194;9.894;2022-12-24T04:22:59;12.40;;;2.97;;
13689;SDS011;6917;52.194;9.894;2022-12-24T04:25:25;6.53;;;2.17;;
13689;SDS011;6917;52.194;9.894;2022-12-24T04:27:50;2.83;;;1.57;;
13689;SDS011;6917;52.194;9.894;2022-12-24T04:30:15;2.73;;;2.50;;
13689;SDS011;6917;52.194;9.894;2022-12-24T04:32:40;9.30;;;3.17;;
13689;SDS011;6917;52.194;9.894;2022-12-24T04:35:06;3.77;;;1.53;;
13689;SDS011;6917;52.194;9.894;2022-12-24T04:37:32;12.13;;;3.70;;
13689;SDS011;6917;52.194;9.894;2022-12-24T04:39:58;2.40;;;1.30;;
13689;SDS011;6917;52.194;9.894;2022-12-24T04:42:23;5.30;;;1.87;;
13689;SDS011;6917;52.194;9.894;2022-12-24T04:44:49;1.70;;;1.60;;
13689;SDS011;6917;52.194;9.894;2022-12-24T04:47:14;10.73;;;3.27;;
13689;SDS011;6917;52.194;9.894;2022-12-24T04:49:39;9.37;;;2.50;;
13689;SDS011;6917;52.194;9.894;2022-12-24T04:52:04;7.97;;;3.87;;
13689;SDS011;6917;52.194;9.894;2022-12-24T04:54:30;5.20;;;3.10;;
13689;SDS011;6917;52.194;9.894;2022-12-24T04:56:55;10.60;;;3.43;;
13689;SDS011;6917;52.194;9.894;2022-12-24T04:59:20;9.70;;;3.67;;
13689;SDS011;6917;52.194;9.894;2022-12-24T05:01:46;9.40;;;2.23;;
13689;SDS011;6917;52.194;9.894;2022-12-24T05:04:11;8.57;;;2.33;;
13689;SDS011;6917;52.194;9.894;2022-12-24T05:06:36;10.77;;;2.77;;
13689;SDS011;6917;52.194;9.894;2022-12-24T05:09:02;8.47;;;2.07;;
13689;SDS011;6917;52.194;9.894;2022-12-24T05:11:27;4.10;;;2.50;;
13689;SDS011;6917;52.194;9.894;2022-12-24T05:13:54;9.53;;;3.97;;
13689;SDS011;6917;52.194;9.894;2022-12-24T05:16:19;11.27;;;2.80;;
13689;SDS011;6917;52.194;9.894;2022-12-24T05:18:46;11.20;;;3.00;;
13689;SDS011;6917;52.194;9.894;2022-12-24T05:21:12;4.70;;;2.60;;
13689;SDS011;6917;52.194;9.894;2022-12-24T05:23:39;8.53;;;3.40;;
13689;SDS011;6917;52.194;9.894;2022-12-24T05:26:28;3.60;;;2.27;;
13689;SDS011;6917;52.194;9.894;2022-12-24T05:28:57;1.70;;;1.40;;
13689;SDS011;6917;52.194;9.894;2022-12-24T05:31:25;16.00;;;3.10;;
13689;SDS011;6917;52.194;9.894;2022-12-24T05:33:52;8.53;;;3.13;;
13689;SDS011;6917;52.194;9.894;2022-12-24T05:36:18;5.10;;;2.50;;
13689;SDS011;6917;52.194;9.894;2022-12-24T05:38:44;15.77;;;3.27;;
13689;SDS011;6917;52.194;9.894;2022-12-24T05:41:10;10.30;;;1.97;;
13689;SDS011;6917;52.194;9.894;2022-12-24T05:43:36;8.00;;;2.63;;
13689;SDS011;6917;52.194;9.894;2022-12-24T05:46:03;17.87;;;3.80;;
13689;SDS011;6917;52.194;9.894;2022-12-24T05:48:30;5.40;;;2.73;;
13689;SDS011;6917;52.194;9.894;2022-12-24T05:50:56;15.70;;;2.47;;
13689;SDS011;6917;52.194;9.894;2022-12-24T05:53:21;7.00;;;2.63;;
13689;SDS011;6917;52.194;9.894;2022-12-24T05:55:47;3.20;;;1.50;;
13689;SDS011;6917;52.194;9.894;2022-12-24T05:58:13;5.80;;;1.93;;
13689;SDS011;6917;52.194;9.894;2022-12-24T06:00:38;9.30;;;3.30;;
13689;SDS011;6917;52.194;9.894;2022-12-24T06:03:03;3.97;;;3.07;;
13689;SDS011;6917;52.194;9.894;2022-12-24T06:05:29;15.23;;;4.40;;
13689;SDS011;6917;52.194;9.894;2022-12-24T06:07:55;6.57;;;2.57;;
13689;SDS011;6917;52.194;9.894;2022-12-24T06:10:20;6.13;;;2.90;;
13689;SDS011;6917;52.194;9.894;2022-12-24T06:12:45;5.50;;;2.80;;
13689;SDS011;6917;52.194;9.894;2022-12-24T06:15:11;3.30;;;2.07;;
13689;SDS011;6917;52.194;9.894;2022-12-24T06:17:36;13.80;;;2.67;;
13689;SDS011;6917;52.194;9.894;2022-12-24T06:20:02;9.17;;;4.83;;
13689;SDS011;6917;52.194;9.894;2022-12-24T06:22:28;9.13;;;2.87;;
13689;SDS011;6917;52.194;9.894;2022-12-24T06:24:53;17.47;;;4.40;;
13689;SDS011;6917;52.194;9.894;2022-12-24T06:27:19;18.13;;;2.63;;
13689;SDS011;6917;52.194;9.894;2022-12-24T06:29:44;10.50;;;5.23;;
13689;SDS011;6917;52.194;9.894;2022-12-24T06:32:09;9.33;;;4.40;;
13689;SDS011;6917;52.194;9.894;2022-12-24T06:34:34;2.73;;;1.90;;
13689;SDS011;6917;52.194;9.894;2022-12-24T06:37:00;13.60;;;3.20;;
13689;SDS011;6917;52.194;9.894;2022-12-24T06:39:25;21.37;;;4.20;;
13689;SDS011;6917;52.194;9.894;2022-12-24T06:41:51;13.47;;;3.00;;
13689;SDS011;6917;52.194;9.894;2022-12-24T06:44:16;7.67;;;3.03;;
13689;SDS011;6917;52.194;9.894;2022-12-24T06:46:42;20.57;;;4.37;;
13689;SDS011;6917;52.194;9.894;2022-12-24T06:49:07;14.87;;;4.20;;
13689;SDS011;6917;52.194;9.894;2022-12-24T06:51:32;13.27;;;3.40;;
13689;SDS011;6917;52.194;9.894;2022-12-24T06:53:57;14.40;;;3.30;;
13689;SDS011;6917;52.194;9.894;2022-12-24T06:56:23;9.40;;;3.17;;
13689;SDS011;6917;52.194;9.894;2022-12-24T06:58:48;13.63;;;4.50;;
13689;SDS011;6917;52.194;9.894;2022-12-24T07:01:14;5.63;;;2.77;;
13689;SDS011;6917;52.194;9.894;2022-12-24T07:03:41;12.97;;;3.77;;
13689;SDS011;6917;52.194;9.894;2022-12-24T07:06:10;17.23;;;4.03;;
13689;SDS011;6917;52.194;9.894;2022-12-24T07:08:59;11.60;;;3.37;;
13689;SDS011;6917;52.194;9.894;2022-12-24T07:11:24;14.73;;;3.73;;
13689;SDS011;6917;52.194;9.894;2022-12-24T07:13:49;10.33;;;4.03;;
13689;SDS011;6917;52.194;9.894;2022-12-24T07:16:15;24.03;;;3.60;;
13689;SDS011;6917;52.194;9.894;2022-12-24T07:18:41;21.10;;;3.70;;
13689;SDS011;6917;52.194;9.894;2022-12-24T07:21:06;10.00;;;3.30;;
13689;SDS011;6917;52.194;9.894;2022-12-24T07:23:32;12.40;;;2.33;;
13689;SDS011;6917;52.194;9.894;2022-12-24T07:25:59;7.13;;;2.07;;
13689;SDS011;6917;52.194;9.894;2022-12-24T07:28:26;9.20;;;3.33;;
13689;SDS011;6917;52.194;9.894;2022-12-24T07:30:52;19.20;;;4.57;;
13689;SDS011;6917;52.194;9.894;2022-12-24T07:33:17;10.27;;;3.13;;
13689;SDS011;6917;52.194;9.894;2022-12-24T07:35:43;10.43;;;2.73;;
13689;SDS011;6917;52.194;9.894;2022-12-24T07:38:08;13.10;;;4.27;;
13689;SDS011;6917;52.194;9.894;2022-12-24T07:40:33;6.67;;;2.93;;
13689;SDS011;6917;52.194;9.894;2022-12-24T07:42:59;8.13;;;2.50;;
13689;SDS011;6917;52.194;9.894;2022-12-24T07:45:24;7.03;;;2.17;;
13689;SDS011;6917;52.194;9.894;2022-12-24T07:47:49;14.43;;;3.30;;
13689;SDS011;6917;52.194;9.894;2022-12-24T07:50:15;10.97;;;3.07;;
13689;SDS011;6917;52.194;9.894;2022-12-24T07:52:40;2.10;;;1.27;;
13689;SDS011;6917;52.194;9.894;2022-12-24T07:55:05;4.27;;;2.10;;
13689;SDS011;6917;52.194;9.894;2022-12-24T07:57:31;18.60;;;2.67;;
13689;SDS011;6917;52.194;9.894;2022-12-24T07:59:56;25.67;;;4.73;;
13689;SDS011;6917;52.194;9.894;2022-12-24T08:02:21;9.00;;;2.50;;
13689;SDS011;6917;52.194;9.894;2022-12-24T08:04:47;5.60;;;3.40;;
13689;SDS011;6917;52.194;9.894;2022-12-24T08:07:12;11.10;;;2.53;;
13689;SDS011;6917;52.194;9.894;2022-12-24T08:09:37;5.53;;;3.60;;
13689;SDS011;6917;52.194;9.894;2022-12-24T08:12:03;19.67;;;2.23;;
13689;SDS011;6917;52.194;9.894;2022-12-24T08:14:29;1.03;;;1.03;;
13689;SDS011;6917;52.194;9.894;2022-12-24T08:16:55;13.50;;;4.40;;
13689;SDS011;6917;52.194;9.894;2022-12-24T08:19:21;0.73;;;0.70;;
13689;SDS011;6917;52.194;9.894;2022-12-24T08:21:47;9.93;;;3.20;;
13689;SDS011;6917;52.194;9.894;2022-12-24T08:24:12;14.57;;;3.23;;
13689;SDS011;6917;52.194;9.894;2022-12-24T08:26:37;10.47;;;4.17;;
13689;SDS011;6917;52.194;9.894;2022-12-24T08:29:03;9.13;;;2.60;;
13689;SDS011;6917;52.194;9.894;2022-12-24T08:31:29;11.07;;;3.73;;
13689;SDS011;6917;52.194;9.894;2022-12-24T08:33:54;12.87;;;3.17;;
13689;SDS011;6917;52.194;9.894;2022-12-24T08:36:19;4.70;;;3.73;;
13689;SDS011;6917;52.194;9.894;2022-12-24T08:38:44;3.67;;;2.23;;
13689;SDS011;6917;52.194;9.894;2022-12-24T08:41:10;5.20;;;1.30;;
13689;SDS011;6917;52.194;9.894;2022-12-24T08:43:35;9.57;;;3.87;;
13689;SDS011;6917;52.194;9.894;2022-12-24T08:46:01;1.03;;;0.93;;
13689;SDS011;6917;52.194;9.894;2022-12-24T08:48:28;14.03;;;2.43;;
13689;SDS011;6917;52.194;9.894;2022-12-24T08:50:54;9.43;;;4.00;;
13689;SDS011;6917;52.194;9.894;2022-12-24T08:53:19;19.03;;;4.23;;
13689;SDS011;6917;52.194;9.894;2022-12-24T08:55:45;16.83;;;3.03;;
13689;SDS011;6917;52.194;9.894;2022-12-24T08:58:10;8.80;;;3.37;;
13689;SDS011;6917;52.194;9.894;2022-12-24T09:00:35;4.30;;;3.90;;
13689;SDS011;6917;52.194;9.894;2022-12-24T09:03:01;10.13;;;2.43;;
13689;SDS011;6917;52.194;9.894;2022-12-24T09:05:26;2.70;;;2.43;;
13689;SDS011;6917;52.194;9.894;2022-12-24T09:07:53;10.10;;;3.83;;
13689;SDS011;6917;52.194;9.894;2022-12-24T09:10:18;14.07;;;4.00;;
13689;SDS011;6917;52.194;9.894;2022-12-24T09:12:44;4.30;;;3.90;;
13689;SDS011;6917;52.194;9.894;2022-12-24T09:15:09;3.97;;;2.63;;
13689;SDS011;6917;52.194;9.894;2022-12-24T09:17:34;9.90;;;4.37;;
13689;SDS011;6917;52.194;9.894;2022-12-24T09:20:00;9.57;;;3.53;;
13689;SDS011;6917;52.194;9.894;2022-12-24T09:22:26;3.23;;;1.77;;
13689;SDS011;6917;52.194;9.894;2022-12-24T09:24:54;0.93;;;0.93;;
13689;SDS011;6917;52.194;9.894;2022-12-24T09:27:20;9.00;;;3.20;;
13689;SDS011;6917;52.194;9.894;2022-12-24T09:29:45;3.70;;;2.90;;
13689;SDS011;6917;52.194;9.894;2022-12-24T09:32:11;3.90;;;1.33;;
13689;SDS011;6917;52.194;9.894;2022-12-24T09:34:36;16.10;;;1.97;;
13689;SDS011;6917;52.194;9.894;2022-12-24T09:37:01;6.03;;;2.73;;
13689;SDS011;6917;52.194;9.894;2022-12-24T09:39:27;2.33;;;2.10;;
13689;SDS011;6917;52.194;9.894;2022-12-24T09:44:57;7.83;;;3.00;;
13689;SDS011;6917;52.194;9.894;2022-12-24T09:47:40;2.00;;;1.83;;
13689;SDS011;6917;52.194;9.894;2022-12-24T09:50:21;1.73;;;1.63;;
13689;SDS011;6917;52.194;9.894;2022-12-24T09:55:55;3.67;;;2.40;;
13689;SDS011;6917;52.194;9.894;2022-12-24T09:58:33;1.93;;;1.83;;
13689;SDS011;6917;52.194;9.894;2022-12-24T10:01:05;6.43;;;1.37;;
13689;SDS011;6917;52.194;9.894;2022-12-24T10:03:30;9.07;;;2.77;;
13689;SDS011;6917;52.194;9.894;2022-12-24T10:06:09;2.43;;;2.23;;
13689;SDS011;6917;52.194;9.894;2022-12-24T10:14:21;2.90;;;2.63;;
13689;SDS011;6917;52.194;9.894;2022-12-24T10:16:57;4.03;;;3.73;;
13689;SDS011;6917;52.194;9.894;2022-12-24T10:19:32;3.30;;;3.10;;
13689;SDS011;6917;52.194;9.894;2022-12-24T10:25:05;5.50;;;2.80;;
13689;SDS011;6917;52.194;9.894;2022-12-24T10:27:41;11.07;;;3.47;;
13689;SDS011;6917;52.194;9.894;2022-12-24T10:30:13;5.00;;;3.87;;
13689;SDS011;6917;52.194;9.894;2022-12-24T10:32:43;6.37;;;3.03;;
13689;SDS011;6917;52.194;9.894;2022-12-24T10:37:40;4.27;;;3.80;;
13689;SDS011;6917;52.194;9.894;2022-12-24T10:40:14;8.77;;;4.23;;
13689;SDS011;6917;52.194;9.894;2022-12-24T10:42:48;2.20;;;2.10;;
13689;SDS011;6917;52.194;9.894;2022-12-24T10:45:15;2.30;;;2.10;;
13689;SDS011;6917;52.194;9.894;2022-12-24T10:47:42;7.83;;;3.43;;
13689;SDS011;6917;52.194;9.894;2022-12-24T10:50:33;4.73;;;3.07;;
13689;SDS011;6917;52.194;9.894;2022-12-24T10:53:06;4.57;;;3.97;;
13689;SDS011;6917;52.194;9.894;2022-12-24T10:55:39;1.40;;;1.30;;
13689;SDS011;6917;52.194;9.894;2022-12-24T10:58:06;3.00;;;2.10;;
13689;SDS011;6917;52.194;9.894;2022-12-24T11:00:39;17.90;;;4.27;;
13689;SDS011;6917;52.194;9.894;2022-12-24T11:05:36;5.30;;;2.73;;
13689;SDS011;6917;52.194;9.894;2022-12-24T11:08:12;3.47;;;2.80;;
13689;SDS011;6917;52.194;9.894;2022-12-24T11:10:43;4.77;;;2.43;;
13689;SDS011;6917;52.194;9.894;2022-12-24T11:13:35;2.87;;;1.97;;
13689;SDS011;6917;52.194;9.894;2022-12-24T11:18:58;2.43;;;1.47;;
13689;SDS011;6917;52.194;9.894;2022-12-24T11:21:26;4.27;;;3.73;;
13689;SDS011;6917;52.194;9.894;2022-12-24T11:23:55;7.10;;;4.23;;
13689;SDS011;6917;52.194;9.894;2022-12-24T11:26:23;5.60;;;2.97;;
13689;SDS011;6917;52.194;9.894;2022-12-24T11:29:11;3.33;;;3.17;;
13689;SDS011;6917;52.194;9.894;2022-12-24T11:31:45;7.37;;;3.23;;
13689;SDS011;6917;52.194;9.894;2022-12-24T11:36:46;4.37;;;4.07;;
13689;SDS011;6917;52.194;9.894;2022-12-24T11:39:18;13.40;;;4.50;;
13689;SDS011;6917;52.194;9.894;2022-12-24T11:41:45;2.53;;;2.33;;
13689;SDS011;6917;52.194;9.894;2022-12-24T11:44:11;6.57;;;3.90;;
13689;SDS011;6917;52.194;9.894;2022-12-24T11:46:41;3.27;;;2.10;;
13689;SDS011;6917;52.194;9.894;2022-12-24T11:51:35;5.40;;;1.70;;
13689;SDS011;6917;52.194;9.894;2022-12-24T11:54:21;6.00;;;1.50;;
13689;SDS011;6917;52.194;9.894;2022-12-24T11:56:54;6.83;;;1.07;;
13689;SDS011;6917;52.194;9.894;2022-12-24T11:59:43;1.03;;;0.70;;
13689;SDS011;6917;52.194;9.894;2022-12-24T12:02:17;0.50;;;0.50;;
13689;SDS011;6917;52.194;9.894;2022-12-24T12:04:51;0.97;;;0.57;;
13689;SDS011;6917;52.194;9.894;2022-12-24T12:07:22;1.17;;;1.07;;
13689;SDS011;6917;52.194;9.894;2022-12-24T12:09:53;1.10;;;1.00;;
13689;SDS011;6917;52.194;9.894;2022-12-24T12:12:25;0.80;;;0.80;;
13689;SDS011;6917;52.194;9.894;2022-12-24T12:17:42;1.27;;;1.17;;
13689;SDS011;6917;52.194;9.894;2022-12-24T12:22:59;1.70;;;1.20;;
13689;SDS011;6917;52.194;9.894;2022-12-24T12:25:29;0.60;;;0.60;;
13689;SDS011;6917;52.194;9.894;2022-12-24T12:28:00;2.10;;;1.07;;
13689;SDS011;6917;52.194;9.894;2022-12-24T12:30:27;4.03;;;1.80;;
13689;SDS011;6917;52.194;9.894;2022-12-24T12:32:59;1.63;;;1.10;;
13689;SDS011;6917;52.194;9.894;2022-12-24T12:35:35;0.50;;;0.50;;
13689;SDS011;6917;52.194;9.894;2022-12-24T12:38:10;1.87;;;1.77;;
13689;SDS011;6917;52.194;9.894;2022-12-24T12:54:51;7.73;;;2.07;;
13689;SDS011;6917;52.194;9.894;2022-12-24T12:57:34;4.93;;;3.63;;
13689;SDS011;6917;52.194;9.894;2022-12-24T13:00:04;1.80;;;1.30;;
13689;SDS011;6917;52.194;9.894;2022-12-24T13:02:46;1.47;;;1.23;;
13689;SDS011;6917;52.194;9.894;2022-12-24T13:16:51;8.00;;;2.97;;
13689;SDS011;6917;52.194;9.894;2022-12-24T13:21:43;9.17;;;3.67;;
13689;SDS011;6917;52.194;9.894;2022-12-24T13:24:17;9.57;;;4.87;;
13689;SDS011;6917;52.194;9.894;2022-12-24T13:29:59;9.40;;;4.33;;
13689;SDS011;6917;52.194;9.894;2022-12-24T13:37:43;2.30;;;2.20;;
13689;SDS011;6917;52.194;9.894;2022-12-24T13:47:53;7.40;;;1.97;;
13689;SDS011;6917;52.194;9.894;2022-12-24T13:50:21;22.70;;;3.07;;
13689;SDS011;6917;52.194;9.894;2022-12-24T13:52:53;1.93;;;1.83;;
13689;SDS011;6917;52.194;9.894;2022-12-24T13:55:20;11.67;;;4.07;;
13689;SDS011;6917;52.194;9.894;2022-12-24T13:58:13;14.33;;;3.20;;
13689;SDS011;6917;52.194;9.894;2022-12-24T14:00:42;5.87;;;2.83;;
13689;SDS011;6917;52.194;9.894;2022-12-24T14:03:21;1.57;;;1.47;;
13689;SDS011;6917;52.194;9.894;2022-12-24T14:05:53;3.70;;;2.13;;
13689;SDS011;6917;52.194;9.894;2022-12-24T14:16:03;5.70;;;2.50;;
13689;SDS011;6917;52.194;9.894;2022-12-24T14:18:32;10.47;;;2.80;;
13689;SDS011;6917;52.194;9.894;2022-12-24T14:21:02;2.40;;;1.90;;
13689;SDS011;6917;52.194;9.894;2022-12-24T14:23:32;2.37;;;2.27;;
13689;SDS011;6917;52.194;9.894;2022-12-24T14:26:00;15.77;;;2.60;;
13689;SDS011;6917;52.194;9.894;2022-12-24T14:28:30;7.07;;;2.83;;
13689;SDS011;6917;52.194;9.894;2022-12-24T14:31:02;2.63;;;2.40;;
13689;SDS011;6917;52.194;9.894;2022-12-24T14:33:33;7.57;;;2.40;;
13689;SDS011;6917;52.194;9.894;2022-12-24T14:35:59;13.63;;;3.23;;
13689;SDS011;6917;52.194;9.894;2022-12-24T14:38:27;13.23;;;3.37;;
13689;SDS011;6917;52.194;9.894;2022-12-24T14:40:59;3.73;;;2.67;;
13689;SDS011;6917;52.194;9.894;2022-12-24T14:43:50;7.20;;;2.70;;
13689;SDS011;6917;52.194;9.894;2022-12-24T14:46:24;7.87;;;4.53;;
13689;SDS011;6917;52.194;9.894;2022-12-24T14:48:55;14.27;;;6.70;;
13689;SDS011;6917;52.194;9.894;2022-12-24T14:56:43;7.97;;;4.97;;
13689;SDS011;6917;52.194;9.894;2022-12-24T14:59:18;8.73;;;3.87;;
13689;SDS011;6917;52.194;9.894;2022-12-24T15:01:44;9.20;;;5.50;;
13689;SDS011;6917;52.194;9.894;2022-12-24T15:06:37;20.03;;;4.70;;
13689;SDS011;6917;52.194;9.894;2022-12-24T15:09:09;8.60;;;4.40;;
13689;SDS011;6917;52.194;9.894;2022-12-24T15:11:42;21.77;;;5.90;;
13689;SDS011;6917;52.194;9.894;2022-12-24T15:14:09;5.93;;;3.90;;
13689;SDS011;6917;52.194;9.894;2022-12-24T15:16:36;7.47;;;3.70;;
13689;SDS011;6917;52.194;9.894;2022-12-24T15:19:03;10.30;;;3.17;;
13689;SDS011;6917;52.194;9.894;2022-12-24T15:21:38;11.07;;;4.43;;
13689;SDS011;6917;52.194;9.894;2022-12-24T15:24:25;8.87;;;4.00;;
13689;SDS011;6917;52.194;9.894;2022-12-24T15:26:51;8.17;;;4.30;;
13689;SDS011;6917;52.194;9.894;2022-12-24T15:29:27;5.33;;;3.53;;
13689;SDS011;6917;52.194;9.894;2022-12-24T15:31:58;13.50;;;5.37;;
13689;SDS011;6917;52.194;9.894;2022-12-24T15:37:22;17.77;;;5.97;;
13689;SDS011;6917;52.194;9.894;2022-12-24T15:39:52;24.67;;;6.30;;
13689;SDS011;6917;52.194;9.894;2022-12-24T15:42:33;14.17;;;5.17;;
13689;SDS011;6917;52.194;9.894;2022-12-24T15:45:06;4.33;;;2.97;;
13689;SDS011;6917;52.194;9.894;2022-12-24T15:47:41;5.87;;;2.10;;
13689;SDS011;6917;52.194;9.894;2022-12-24T15:52:54;20.60;;;5.00;;
13689;SDS011;6917;52.194;9.894;2022-12-24T15:55:31;17.20;;;6.13;;
13689;SDS011;6917;52.194;9.894;2022-12-24T15:57:59;9.47;;;4.20;;
13689;SDS011;6917;52.194;9.894;2022-12-24T16:00:26;11.63;;;3.07;;
13689;SDS011;6917;52.194;9.894;2022-12-24T16:05:44;3.00;;;2.73;;
13689;SDS011;6917;52.194;9.894;2022-12-24T16:10:45;14.00;;;5.00;;
13689;SDS011;6917;52.194;9.894;2022-12-24T16:13:15;7.27;;;5.07;;
13689;SDS011;6917;52.194;9.894;2022-12-24T16:15:45;4.87;;;2.47;;
13689;SDS011;6917;52.194;9.894;2022-12-24T16:18:17;2.37;;;0.87;;
13689;SDS011;6917;52.194;9.894;2022-12-24T16:20:47;3.80;;;2.50;;
13689;SDS011;6917;52.194;9.894;2022-12-24T16:23:18;3.03;;;2.83;;
13689;SDS011;6917;52.194;9.894;2022-12-24T16:25:45;14.40;;;4.87;;
13689;SDS011;6917;52.194;9.894;2022-12-24T16:28:10;4.00;;;2.97;;
13689;SDS011;6917;52.194;9.894;2022-12-24T16:30:37;3.93;;;2.57;;
13689;SDS011;6917;52.194;9.894;2022-12-24T16:33:04;8.53;;;3.27;;
13689;SDS011;6917;52.194;9.894;2022-12-24T16:35:30;19.23;;;4.43;;
13689;SDS011;6917;52.194;9.894;2022-12-24T16:38:02;8.77;;;3.73;;
13689;SDS011;6917;52.194;9.894;2022-12-24T16:40:28;4.90;;;2.77;;
13689;SDS011;6917;52.194;9.894;2022-12-24T16:42:54;11.30;;;3.03;;
13689;SDS011;6917;52.194;9.894;2022-12-24T16:45:39;1.10;;;1.10;;
13689;SDS011;6917;52.194;9.894;2022-12-24T16:48:04;12.63;;;3.03;;
13689;SDS011;6917;52.194;9.894;2022-12-24T16:50:31;17.10;;;4.20;;
13689;SDS011;6917;52.194;9.894;2022-12-24T16:52:56;4.80;;;3.57;;
13689;SDS011;6917;52.194;9.894;2022-12-24T16:55:22;7.00;;;3.83;;
13689;SDS011;6917;52.194;9.894;2022-12-24T16:57:47;4.20;;;3.73;;
13689;SDS011;6917;52.194;9.894;2022-12-24T17:02:43;15.13;;;6.23;;
13689;SDS011;6917;52.194;9.894;2022-12-24T17:05:09;23.73;;;4.10;;
13689;SDS011;6917;52.194;9.894;2022-12-24T17:07:35;7.63;;;6.97;;
13689;SDS011;6917;52.194;9.894;2022-12-24T17:10:00;40.30;;;26.77;;
13689;SDS011;6917;52.194;9.894;2022-12-24T17:12:25;115.37;;;65.70;;